^^
Station Historical Data
Daily Summary for February 15, 2017 Units:  English    Metric   Both
« Previous Day
Next Day »
Daily Weekly Monthly Yearly Custom
  High: Low: Average:
Temperature: 47.2 °F 26.8 °F 34.2 °F
Dew Point: 34.9 °F 18.4 °F 26.6 °F
Humidity: 90 % 54 % 75 %
Wind Speed: 15.2 mph 0.0 mph 4.3 mph
Wind Gust: 26.5 mph - -
Wind:- - West
Pressure: 29.71 in 29.40 in -
Precipitation: 0.00 in    
Historical Graphs
 
 
Tabular Data for February 15, 2017
Time Temperature Dew Point Pressure Wind Wind Speed Wind Gust Humidity Rainfall Rate (Hourly) solar Conditions
00:03 29.6 °F 25.1 °F 29.71 in Calm     83 % 0.00 in 0.0 W/m2 CLR
00:08 29.5 °F 25.3 °F 29.71 in Calm     84 % 0.00 in 0.0 W/m2 CLR
00:13 29.5 °F 25.3 °F 29.71 in Calm     84 % 0.00 in 0.0 W/m2 CLR
00:18 29.5 °F 25.3 °F 29.71 in Calm     84 % 0.00 in 0.0 W/m2 CLR
00:23 29.3 °F 25.1 °F 29.70 in Calm     84 % 0.00 in 0.0 W/m2 CLR
00:28 29.5 °F 25.3 °F 29.70 in Calm     84 % 0.00 in 0.0 W/m2 CLR
00:33 29.5 °F 25.5 °F 29.70 in Calm     85 % 0.00 in 0.0 W/m2 CLR
00:38 29.3 °F 25.1 °F 29.70 in Calm     84 % 0.00 in 0.0 W/m2 CLR
00:43 29.3 °F 25.4 °F 29.70 in Calm     85 % 0.00 in 0.0 W/m2 CLR
00:48 29.3 °F 25.4 °F 29.69 in Calm     85 % 0.00 in 0.0 W/m2 CLR
00:53 29.4 °F 25.4 °F 29.69 in Calm     85 % 0.00 in 0.0 W/m2 CLR
00:58 29.4 °F 25.4 °F 29.69 in Calm     85 % 0.00 in 0.0 W/m2 CLR
01:03 29.6 °F 25.6 °F 29.69 in Calm     85 % 0.00 in 0.0 W/m2 CLR
01:08 29.6 °F 25.6 °F 29.69 in Calm     85 % 0.00 in 0.0 W/m2 CLR
01:13 29.4 °F 25.4 °F 29.69 in Calm     85 % 0.00 in 0.0 W/m2 CLR
01:18 29.1 °F 25.2 °F 29.68 in Calm     85 % 0.00 in 0.0 W/m2 CLR
01:23 28.8 °F 25.1 °F 29.68 in Calm     86 % 0.00 in 0.0 W/m2 CLR
01:28 29.0 °F 25.3 °F 29.68 in Calm     86 % 0.00 in 0.0 W/m2 CLR
01:33 29.2 °F 25.5 °F 29.68 in Calm     86 % 0.00 in 0.0 W/m2 CLR
01:38 29.1 °F 25.4 °F 29.68 in Calm     86 % 0.00 in 0.0 W/m2 CLR
01:43 28.9 °F 25.2 °F 29.68 in Calm     86 % 0.00 in 0.0 W/m2 CLR
01:48 28.8 °F 25.1 °F 29.68 in Calm     86 % 0.00 in 0.0 W/m2 CLR
01:53 28.8 °F 25.4 °F 29.67 in Calm     87 % 0.00 in 0.0 W/m2 CLR
01:58 29.0 °F 25.6 °F 29.67 in Calm     87 % 0.00 in 0.0 W/m2 CLR
02:03 29.0 °F 25.6 °F 29.67 in Calm     87 % 0.00 in 0.0 W/m2 CLR
02:08 28.7 °F 25.3 °F 29.67 in Calm     87 % 0.00 in 0.0 W/m2 CLR
02:13 28.6 °F 25.2 °F 29.67 in Calm     87 % 0.00 in 0.0 W/m2 CLR
02:18 28.6 °F 25.2 °F 29.66 in Calm     87 % 0.00 in 0.0 W/m2 CLR
02:23 28.7 °F 25.3 °F 29.66 in Calm     87 % 0.00 in 0.0 W/m2 CLR
02:28 28.7 °F 25.3 °F 29.66 in Calm     87 % 0.00 in 0.0 W/m2 CLR
02:33 28.6 °F 25.2 °F 29.65 in Calm     87 % 0.00 in 0.0 W/m2 CLR
02:38 28.4 °F 25.0 °F 29.65 in Calm     87 % 0.00 in 0.0 W/m2 CLR
02:43 28.7 °F 25.3 °F 29.65 in Calm     87 % 0.00 in 0.0 W/m2 CLR
02:48 28.6 °F 25.2 °F 29.64 in Calm     87 % 0.00 in 0.0 W/m2 CLR
02:53 28.6 °F 25.2 °F 29.64 in Calm     87 % 0.00 in 0.0 W/m2 CLR
02:58 28.5 °F 25.1 °F 29.64 in Calm     87 % 0.00 in 0.0 W/m2 CLR
03:03 28.2 °F 24.8 °F 29.64 in Calm     87 % 0.00 in 0.0 W/m2 CLR
03:08 28.3 °F 25.2 °F 29.64 in Calm     88 % 0.00 in 0.0 W/m2 CLR
03:13 28.0 °F 24.9 °F 29.64 in Calm     88 % 0.00 in 0.0 W/m2 CLR
03:18 27.9 °F 24.8 °F 29.63 in Calm     88 % 0.00 in 0.0 W/m2 CLR
03:23 28.0 °F 24.9 °F 29.63 in Calm     88 % 0.00 in 0.0 W/m2 CLR
03:28 28.1 °F 25.0 °F 29.62 in Calm     88 % 0.00 in 0.0 W/m2 CLR
03:33 28.1 °F 25.0 °F 29.62 in Calm     88 % 0.00 in 0.0 W/m2 CLR
03:38 28.0 °F 24.9 °F 29.62 in Calm     88 % 0.00 in 0.0 W/m2 CLR
03:43 28.0 °F 24.9 °F 29.61 in Calm     88 % 0.00 in 0.0 W/m2 CLR
03:48 28.0 °F 24.9 °F 29.61 in WSW 0.7 mph 2.0 mph 88 % 0.00 in 0.0 W/m2 CLR
03:53 28.1 °F 25.0 °F 29.61 in WSW 1.9 mph 2.3 mph 88 % 0.00 in 0.0 W/m2 CLR
03:59 27.9 °F 24.8 °F 29.61 in Calm     88 % 0.00 in 0.0 W/m2 CLR
04:04 27.8 °F 24.7 °F 29.61 in Calm     88 % 0.00 in 0.0 W/m2 CLR
04:09 28.0 °F 24.9 °F 29.61 in Calm     88 % 0.00 in 0.0 W/m2 CLR
04:14 28.1 °F 25.0 °F 29.61 in Calm     88 % 0.00 in 0.0 W/m2 CLR
04:19 28.2 °F 25.1 °F 29.61 in Calm     88 % 0.00 in 0.0 W/m2 CLR
04:24 28.1 °F 25.0 °F 29.60 in Calm     88 % 0.00 in 0.0 W/m2 CLR
04:29 28.1 °F 25.0 °F 29.60 in Calm     88 % 0.00 in 0.0 W/m2 CLR
04:34 27.8 °F 24.7 °F 29.60 in Calm     88 % 0.00 in 0.0 W/m2 CLR
04:39 27.9 °F 24.8 °F 29.60 in Calm     88 % 0.00 in 0.0 W/m2 CLR
04:44 28.0 °F 24.9 °F 29.60 in WSW 1.9 mph 3.0 mph 88 % 0.00 in 0.0 W/m2 CLR
04:49 28.0 °F 24.9 °F 29.60 in Calm     88 % 0.00 in 0.0 W/m2 CLR
04:54 27.9 °F 24.8 °F 29.59 in Calm     88 % 0.00 in 0.0 W/m2 CLR
04:59 28.0 °F 24.9 °F 29.59 in WSW 0.2 mph 2.0 mph 88 % 0.00 in 0.0 W/m2 CLR
05:04 27.9 °F 24.8 °F 29.59 in WSW 1.6 mph 3.5 mph 88 % 0.00 in 0.0 W/m2 CLR
05:09 27.9 °F 24.8 °F 29.59 in Calm     88 % 0.00 in 0.0 W/m2 CLR
05:14 27.7 °F 24.6 °F 29.59 in Calm     88 % 0.00 in 0.0 W/m2 CLR
05:19 27.7 °F 24.6 °F 29.59 in Calm     88 % 0.00 in 0.0 W/m2 CLR
05:24 27.7 °F 24.6 °F 29.59 in West 0.1 mph 2.3 mph 88 % 0.00 in 0.0 W/m2 CLR
05:29 27.8 °F 24.7 °F 29.59 in Calm     88 % 0.00 in 0.0 W/m2 CLR
05:34 27.7 °F 24.6 °F 29.58 in Calm     88 % 0.00 in 0.0 W/m2 CLR
05:39 27.6 °F 24.5 °F 29.58 in Calm     88 % 0.00 in 0.0 W/m2 CLR
05:44 27.6 °F 24.5 °F 29.58 in Calm     88 % 0.00 in 0.0 W/m2 CLR
05:49 27.3 °F 24.2 °F 29.58 in Calm     88 % 0.00 in 0.0 W/m2 CLR
05:54 27.2 °F 24.1 °F 29.58 in Calm     88 % 0.00 in 0.0 W/m2 CLR
05:59 27.2 °F 24.1 °F 29.58 in Calm     88 % 0.00 in 0.0 W/m2 CLR
06:04 27.3 °F 24.5 °F 29.58 in Calm     89 % 0.00 in 0.0 W/m2 CLR
06:09 27.3 °F 24.5 °F 29.57 in Calm     89 % 0.00 in 0.0 W/m2 CLR
06:14 27.1 °F 24.3 °F 29.57 in Calm     89 % 0.00 in 0.0 W/m2 CLR
06:19 26.9 °F 24.1 °F 29.57 in Calm     89 % 0.00 in 0.0 W/m2 CLR
06:24 26.8 °F 24.0 °F 29.57 in Calm     89 % 0.00 in 0.0 W/m2 CLR
06:29 26.9 °F 24.1 °F 29.56 in Calm     89 % 0.00 in 0.0 W/m2 CLR
06:34 26.9 °F 24.1 °F 29.56 in Calm     89 % 0.00 in 0.0 W/m2 CLR
06:39 27.1 °F 24.3 °F 29.56 in Calm     89 % 0.00 in 0.0 W/m2 CLR
06:44 27.0 °F 24.2 °F 29.56 in Calm     89 % 0.00 in 0.0 W/m2 CLR
06:50 26.9 °F 24.1 °F 29.56 in Calm     89 % 0.00 in 0.0 W/m2 CLR
06:55 27.0 °F 24.5 °F 29.55 in Calm     90 % 0.00 in 0.0 W/m2 CLR
07:00 26.9 °F 24.1 °F 29.55 in Calm     89 % 0.00 in 5.0 W/m2 CLR
07:05 26.9 °F 24.4 °F 29.55 in Calm     90 % 0.00 in 7.0 W/m2 OVC
07:10 26.8 °F 24.0 °F 29.56 in Calm     89 % 0.00 in 11.0 W/m2 OVC
07:15 27.1 °F 24.6 °F 29.55 in Calm     90 % 0.00 in 21.0 W/m2 CLR
07:20 26.9 °F 24.4 °F 29.55 in Calm     90 % 0.00 in 26.0 W/m2 CLR
07:25 27.2 °F 24.7 °F 29.54 in Calm     90 % 0.00 in 30.0 W/m2 CLR
07:30 27.2 °F 24.7 °F 29.54 in Calm     90 % 0.00 in 40.0 W/m2 CLR
07:35 27.4 °F 24.9 °F 29.54 in Calm     90 % 0.00 in 54.0 W/m2 CLR
07:40 27.3 °F 24.5 °F 29.54 in Calm     89 % 0.00 in 70.0 W/m2 CLR
07:45 27.6 °F 25.1 °F 29.53 in Calm     90 % 0.00 in 83.0 W/m2 CLR
07:50 28.3 °F 25.7 °F 29.52 in Calm     90 % 0.00 in 90.0 W/m2 CLR
07:55 28.8 °F 26.2 °F 29.52 in Calm     90 % 0.00 in 105.0 W/m2 CLR
08:00 29.0 °F 26.2 °F 29.52 in Calm   1.2 mph 89 % 0.00 in 109.0 W/m2 CLR
08:05 29.1 °F 26.3 °F 29.52 in Calm   1.2 mph 89 % 0.00 in 111.0 W/m2 CLR
08:10 29.4 °F 26.6 °F 29.52 in Calm     89 % 0.00 in 114.0 W/m2 CLR
08:15 29.6 °F 26.8 °F 29.52 in Calm     89 % 0.00 in 128.0 W/m2 CLR
08:20 29.8 °F 26.7 °F 29.52 in Calm     88 % 0.00 in 135.0 W/m2 CLR
08:26 29.6 °F 26.5 °F 29.52 in Calm     88 % 0.00 in 134.0 W/m2 CLR
08:31 29.7 °F 26.6 °F 29.52 in Calm     88 % 0.00 in 127.0 W/m2 FEW
08:36 30.0 °F 26.9 °F 29.52 in Calm     88 % 0.00 in 144.0 W/m2 FEW
08:41 30.2 °F 27.1 °F 29.52 in Calm     88 % 0.00 in 181.0 W/m2 CLR
08:46 30.5 °F 27.1 °F 29.52 in Calm     87 % 0.00 in 172.0 W/m2 CLR
08:51 30.6 °F 27.2 °F 29.52 in Calm     87 % 0.00 in 148.0 W/m2 FEW
08:56 30.8 °F 27.4 °F 29.51 in Calm     87 % 0.00 in 162.0 W/m2 FEW
09:01 31.1 °F 27.7 °F 29.51 in Calm     87 % 0.00 in 186.0 W/m2 FEW
09:06 31.2 °F 27.5 °F 29.51 in Calm     86 % 0.00 in 190.0 W/m2 FEW
09:11 31.5 °F 27.8 °F 29.51 in Calm     86 % 0.00 in 190.0 W/m2 FEW
09:16 32.0 °F 28.3 °F 29.50 in Calm     86 % 0.00 in 193.0 W/m2 FEW
09:21 32.0 °F 28.0 °F 29.50 in Calm     85 % 0.00 in 200.0 W/m2 FEW
09:26 32.2 °F 28.2 °F 29.50 in Calm     85 % 0.00 in 200.0 W/m2 SCT
09:31 32.5 °F 28.5 °F 29.49 in Calm     85 % 0.00 in 200.0 W/m2 SCT
09:36 32.7 °F 28.4 °F 29.50 in Calm     84 % 0.00 in 211.0 W/m2 SCT
09:41 32.9 °F 28.6 °F 29.49 in Calm     84 % 0.00 in 214.0 W/m2 SCT
09:46 33.0 °F 28.4 °F 29.49 in Calm     83 % 0.00 in 209.0 W/m2 SCT
09:51 33.2 °F 28.6 °F 29.48 in Calm     83 % 0.00 in 213.0 W/m2 SCT
09:56 33.4 °F 28.8 °F 29.49 in Calm     83 % 0.00 in 234.0 W/m2 SCT
10:01 34.3 °F 29.7 °F 29.48 in WNW 1.9 mph 3.5 mph 83 % 0.00 in 239.0 W/m2 SCT
10:06 34.6 °F 29.7 °F 29.48 in Calm   2.3 mph 82 % 0.00 in 246.0 W/m2 SCT
10:11 34.4 °F 29.5 °F 29.48 in Calm     82 % 0.00 in 260.0 W/m2 SCT
10:16 34.7 °F 29.8 °F 29.48 in Calm     82 % 0.00 in 306.0 W/m2 FEW
10:21 35.2 °F 30.0 °F 29.47 in Calm     81 % 0.00 in 276.0 W/m2 SCT
10:26 35.5 °F 29.9 °F 29.47 in Calm     80 % 0.00 in 380.0 W/m2 FEW
10:31 36.2 °F 30.6 °F 29.47 in Calm     80 % 0.00 in 366.0 W/m2 CLR
10:36 36.9 °F 30.7 °F 29.47 in Calm   1.0 mph 78 % 0.00 in 336.0 W/m2 FEW
10:41 37.1 °F 30.6 °F 29.47 in Calm   1.2 mph 77 % 0.00 in 348.0 W/m2 FEW
10:46 37.5 °F 30.9 °F 29.46 in Calm     77 % 0.00 in 431.0 W/m2 CLR
10:51 38.1 °F 31.2 °F 29.46 in Calm     76 % 0.00 in 315.0 W/m2 FEW
10:56 38.5 °F 31.3 °F 29.46 in WNW 0.1 mph 2.0 mph 75 % 0.00 in 257.0 W/m2 SCT
11:01 38.8 °F 31.2 °F 29.46 in West 0.5 mph 2.3 mph 74 % 0.00 in 323.0 W/m2 FEW
11:06 39.1 °F 30.8 °F 29.46 in SW 3.1 mph 5.8 mph 72 % 0.00 in 336.0 W/m2 FEW
11:11 39.5 °F 31.2 °F 29.45 in SW 0.3 mph 3.0 mph 72 % 0.00 in 420.0 W/m2 CLR
11:16 39.9 °F 31.3 °F 29.45 in SW 1.5 mph 3.5 mph 71 % 0.00 in 378.0 W/m2 CLR
11:21 40.2 °F 31.2 °F 29.45 in SW 2.7 mph 4.6 mph 70 % 0.00 in 262.0 W/m2 SCT
11:26 40.4 °F 31.0 °F 29.44 in SW 4.7 mph 8.1 mph 69 % 0.00 in 302.0 W/m2 SCT
11:31 40.9 °F 31.1 °F 29.44 in West 3.5 mph 3.5 mph 68 % 0.00 in 563.0 W/m2 CLR
11:37 41.7 °F 31.5 °F 29.43 in WSW 5.0 mph 9.2 mph 67 % 0.00 in 587.0 W/m2 CLR
11:42 42.1 °F 31.9 °F 29.43 in WSW 3.5 mph 8.1 mph 67 % 0.00 in 540.0 W/m2 CLR
11:46 42.5 °F 31.9 °F 29.43 in SW 5.2 mph 6.9 mph 66 % 0.00 in 626.0 W/m2 CLR
11:52 42.7 °F 31.7 °F 29.42 in SSW 4.3 mph 9.2 mph 65 % 0.00 in 621.0 W/m2 CLR
11:57 43.0 °F 32.0 °F 29.42 in SW 5.0 mph 5.8 mph 65 % 0.00 in 520.0 W/m2 CLR
12:02 43.2 °F 32.2 °F 29.42 in WSW 4.9 mph 8.1 mph 65 % 0.00 in 689.0 W/m2 CLR
12:07 43.7 °F 32.7 °F 29.42 in SSW 6.5 mph 11.5 mph 65 % 0.00 in 668.0 W/m2 CLR
12:12 44.1 °F 32.7 °F 29.42 in SSW 3.7 mph 5.8 mph 64 % 0.00 in 636.0 W/m2 CLR
12:17 44.8 °F 33.0 °F 29.41 in SSW 6.0 mph 9.2 mph 63 % 0.00 in 501.0 W/m2 CLR
12:22 44.6 °F 32.4 °F 29.41 in SW 4.3 mph 6.9 mph 62 % 0.00 in 659.0 W/m2 CLR
12:27 45.0 °F 33.2 °F 29.41 in WSW 3.4 mph 5.0 mph 63 % 0.00 in 657.0 W/m2 CLR
12:32 45.2 °F 33.3 °F 29.41 in SW 6.7 mph 9.2 mph 63 % 0.00 in 622.0 W/m2 CLR
12:37 45.7 °F 33.4 °F 29.40 in WSW 7.4 mph 12.7 mph 62 % 0.00 in 633.0 W/m2 CLR
12:42 46.1 °F 33.8 °F 29.40 in WSW 7.4 mph 11.5 mph 62 % 0.00 in 628.0 W/m2 CLR
12:47 46.4 °F 33.7 °F 29.40 in SSW 4.7 mph 8.1 mph 61 % 0.00 in 621.0 W/m2 CLR
12:52 46.4 °F 33.3 °F 29.40 in WSW 6.1 mph 9.2 mph 60 % 0.00 in 621.0 W/m2 CLR
12:57 47.2 °F 33.6 °F 29.40 in SW 6.3 mph 11.5 mph 59 % 0.00 in 199.0 W/m2 BKN
13:02 46.4 °F 32.8 °F 29.41 in West 6.7 mph 11.5 mph 59 % 0.00 in 95.0 W/m2 OVC
13:07 45.5 °F 32.4 °F 29.41 in NW 12.0 mph 18.0 mph 60 % 0.00 in 121.0 W/m2 OVC
13:12 44.0 °F 30.6 °F 29.41 in WNW 11.6 mph 18.4 mph 59 % 0.00 in 118.0 W/m2 OVC
13:17 43.3 °F 30.7 °F 29.41 in WNW 7.3 mph 12.7 mph 61 % 0.00 in 130.0 W/m2 OVC
13:22 43.1 °F 30.6 °F 29.41 in WNW 13.0 mph 19.6 mph 61 % 0.00 in 227.0 W/m2 BKN
13:27 43.2 °F 30.6 °F 29.40 in WSW 10.5 mph 15.0 mph 61 % 0.00 in 192.0 W/m2 BKN
13:32 43.2 °F 30.6 °F 29.41 in WSW 13.0 mph 26.5 mph 61 % 0.00 in 121.0 W/m2 OVC
13:37 43.1 °F 30.6 °F 29.40 in West 9.3 mph 13.8 mph 61 % 0.00 in 111.0 W/m2 OVC
13:42 43.1 °F 31.0 °F 29.40 in West 2.2 mph 3.5 mph 62 % 0.00 in 186.0 W/m2 BKN
13:47 43.2 °F 30.6 °F 29.40 in WSW 6.0 mph 10.0 mph 61 % 0.00 in 281.0 W/m2 SCT
13:52 43.3 °F 30.3 °F 29.40 in West 9.2 mph 13.8 mph 60 % 0.00 in 207.0 W/m2 BKN
13:57 43.1 °F 29.7 °F 29.40 in West 8.9 mph 13.8 mph 59 % 0.00 in 151.0 W/m2 BKN
14:02 42.9 °F 30.0 °F 29.40 in West 9.7 mph 15.0 mph 60 % 0.00 in 207.0 W/m2 BKN
14:07 43.1 °F 30.1 °F 29.40 in WSW 10.0 mph 11.5 mph 60 % 0.00 in 269.0 W/m2 SCT
14:12 43.5 °F 30.5 °F 29.40 in WSW 9.1 mph 12.7 mph 60 % 0.00 in 225.0 W/m2 SCT
14:17 43.4 °F 30.4 °F 29.40 in West 13.0 mph 15.0 mph 60 % 0.00 in 149.0 W/m2 BKN
14:22 43.0 °F 30.5 °F 29.40 in NW 9.1 mph 15.0 mph 61 % 0.00 in 128.0 W/m2 BKN
14:27 42.7 °F 31.0 °F 29.41 in WNW 14.0 mph 18.4 mph 63 % 0.00 in 90.0 W/m2 OVC
14:32 42.1 °F 31.6 °F 29.42 in West 10.7 mph 19.6 mph 66 % 0.00 in 88.0 W/m2 OVC
14:38 41.1 °F 32.1 °F 29.42 in NW 14.5 mph 19.6 mph 70 % 0.00 in 88.0 W/m2 OVC
14:42 40.0 °F 31.4 °F 29.43 in West 14.5 mph 17.3 mph 71 % 0.00 in 83.0 W/m2 OVC
14:48 39.3 °F 31.7 °F 29.43 in WNW 8.8 mph 15.0 mph 74 % 0.00 in 77.0 W/m2 OVC
14:53 38.3 °F 31.7 °F 29.43 in WNW 4.8 mph 9.2 mph 77 % 0.00 in 79.0 W/m2 OVC
14:58 37.7 °F 32.1 °F 29.43 in WNW 3.2 mph 9.2 mph 80 % 0.00 in 83.0 W/m2 OVC
15:03 37.7 °F 32.7 °F 29.43 in West 4.4 mph 10.4 mph 82 % 0.00 in 139.0 W/m2 BKN
15:08 38.3 °F 33.6 °F 29.43 in West 6.1 mph 10.4 mph 83 % 0.00 in 234.0 W/m2 SCT
15:13 38.8 °F 33.8 °F 29.43 in NW 3.2 mph 4.0 mph 82 % 0.00 in 179.0 W/m2 SCT
15:18 38.9 °F 34.2 °F 29.42 in NW 2.7 mph 3.5 mph 83 % 0.00 in 216.0 W/m2 FEW
15:23 39.4 °F 34.7 °F 29.42 in Calm   2.3 mph 83 % 0.00 in 190.0 W/m2 SCT
15:28 39.9 °F 34.9 °F 29.42 in NW 4.2 mph 4.6 mph 82 % 0.00 in 160.0 W/m2 SCT
15:33 40.1 °F 33.5 °F 29.42 in WSW 10.3 mph 12.7 mph 77 % 0.00 in 132.0 W/m2 BKN
15:38 40.4 °F 32.8 °F 29.42 in West 10.7 mph 13.8 mph 74 % 0.00 in 95.0 W/m2 BKN
15:43 40.6 °F 31.6 °F 29.43 in WNW 13.8 mph 19.6 mph 70 % 0.00 in 83.0 W/m2 BKN
15:48 40.6 °F 30.5 °F 29.43 in NW 12.1 mph 19.6 mph 67 % 0.00 in 69.0 W/m2 BKN
15:53 40.5 °F 30.0 °F 29.44 in NW 9.5 mph 14.0 mph 66 % 0.00 in 49.0 W/m2 OVC
15:58 40.1 °F 30.4 °F 29.43 in NW 11.2 mph 15.0 mph 68 % 0.00 in 47.0 W/m2 OVC
16:03 39.5 °F 30.2 °F 29.44 in West 10.9 mph 16.1 mph 69 % 0.00 in 51.0 W/m2 OVC
16:08 39.2 °F 30.2 °F 29.44 in NW 10.8 mph 15.0 mph 70 % 0.00 in 70.0 W/m2 BKN
16:13 39.3 °F 30.3 °F 29.44 in NW 8.9 mph 16.1 mph 70 % 0.00 in 102.0 W/m2 SCT
16:18 39.4 °F 30.1 °F 29.44 in West 10.0 mph 19.6 mph 69 % 0.00 in 107.0 W/m2 FEW
16:23 39.5 °F 29.8 °F 29.45 in WNW 10.4 mph 15.0 mph 68 % 0.00 in 30.0 W/m2 BKN
16:28 39.2 °F 28.8 °F 29.46 in WNW 14.3 mph 24.2 mph 66 % 0.00 in 58.0 W/m2 OVC
16:33 38.4 °F 28.4 °F 29.46 in WNW 15.2 mph 21.0 mph 67 % 0.00 in 86.0 W/m2 SCT
16:38 38.0 °F 28.4 °F 29.45 in WNW 13.2 mph 20.7 mph 68 % 0.00 in 70.0 W/m2 SCT
16:43 37.7 °F 27.0 °F 29.46 in West 13.9 mph 23.0 mph 65 % 0.00 in 74.0 W/m2 FEW
16:48 37.6 °F 26.9 °F 29.46 in NW 10.2 mph 17.3 mph 65 % 0.00 in 54.0 W/m2 SCT
16:53 37.5 °F 27.2 °F 29.46 in NW 11.1 mph 20.7 mph 66 % 0.00 in 60.0 W/m2 FEW
16:58 37.3 °F 27.0 °F 29.46 in West 13.4 mph 21.9 mph 66 % 0.00 in 62.0 W/m2 CLR
17:03 37.1 °F 27.2 °F 29.47 in NW 10.0 mph 12.0 mph 67 % 0.00 in 53.0 W/m2 CLR
17:08 37.1 °F 27.2 °F 29.46 in NW 11.1 mph 12.7 mph 67 % 0.00 in 33.0 W/m2 FEW
17:13 37.1 °F 26.8 °F 29.47 in NW 7.0 mph 13.8 mph 66 % 0.00 in 25.0 W/m2 FEW
17:18 37.0 °F 26.7 °F 29.47 in NNW 9.8 mph 12.7 mph 66 % 0.00 in 19.0 W/m2 FEW
17:23 37.0 °F 26.3 °F 29.47 in WNW 11.2 mph 17.3 mph 65 % 0.00 in 18.0 W/m2 CLR
17:28 37.0 °F 26.3 °F 29.47 in WNW 9.3 mph 12.0 mph 65 % 0.00 in 16.0 W/m2 CLR
17:33 37.1 °F 26.0 °F 29.47 in WNW 9.7 mph 13.8 mph 64 % 0.00 in 16.0 W/m2 CLR
17:38 37.1 °F 26.0 °F 29.47 in NW 5.3 mph 11.5 mph 64 % 0.00 in 5.0 W/m2 CLR
17:48 37.1 °F 25.7 °F 29.48 in WNW 5.1 mph 15.0 mph 63 % 0.00 in 0.0 W/m2 CLR
17:53 37.1 °F 25.7 °F 29.48 in WNW 7.9 mph 15.0 mph 63 % 0.00 in 0.0 W/m2 CLR
17:58 37.1 °F 25.3 °F 29.48 in NNW 5.0 mph 11.5 mph 62 % 0.00 in 0.0 W/m2 CLR
18:03 37.1 °F 25.3 °F 29.48 in WNW 6.1 mph 10.4 mph 62 % 0.00 in 0.0 W/m2 CLR
18:08 37.0 °F 25.2 °F 29.49 in WNW 4.6 mph 10.4 mph 62 % 0.00 in 0.0 W/m2 CLR
18:13 36.8 °F 25.0 °F 29.49 in WNW 4.3 mph 7.0 mph 62 % 0.00 in 0.0 W/m2 CLR
18:18 36.7 °F 24.9 °F 29.49 in WNW 1.6 mph 3.5 mph 62 % 0.00 in 0.0 W/m2 CLR
18:28 36.3 °F 24.9 °F 29.49 in WNW 2.8 mph 4.6 mph 63 % 0.00 in 0.0 W/m2 CLR
18:33 36.2 °F 24.8 °F 29.49 in West 4.4 mph 6.9 mph 63 % 0.00 in 0.0 W/m2 CLR
18:39 36.1 °F 24.7 °F 29.49 in WNW 4.9 mph 8.1 mph 63 % 0.00 in 0.0 W/m2 CLR
18:44 36.1 °F 24.3 °F 29.50 in WNW 4.4 mph 6.9 mph 62 % 0.00 in 0.0 W/m2 CLR
18:49 36.0 °F 24.2 °F 29.50 in West 4.3 mph 6.9 mph 62 % 0.00 in 0.0 W/m2 CLR
18:54 35.9 °F 24.1 °F 29.50 in West 4.2 mph 8.1 mph 62 % 0.00 in 0.0 W/m2 CLR
18:59 35.6 °F 23.9 °F 29.50 in West 5.2 mph 9.0 mph 62 % 0.00 in 0.0 W/m2 CLR
19:04 35.6 °F 23.9 °F 29.50 in West 8.8 mph 15.0 mph 62 % 0.00 in 0.0 W/m2 CLR
19:09 35.7 °F 23.6 °F 29.50 in NW 5.7 mph 11.5 mph 61 % 0.00 in 0.0 W/m2 CLR
19:14 35.7 °F 23.6 °F 29.50 in West 10.0 mph 18.4 mph 61 % 0.00 in 0.0 W/m2 CLR
19:19 35.7 °F 23.6 °F 29.51 in WNW 9.7 mph 15.0 mph 61 % 0.00 in 0.0 W/m2 CLR
19:24 35.6 °F 23.9 °F 29.51 in West 6.9 mph 9.2 mph 62 % 0.00 in 0.0 W/m2 CLR
19:29 35.5 °F 23.8 °F 29.51 in West 8.5 mph 11.5 mph 62 % 0.00 in 0.0 W/m2 CLR
19:34 35.5 °F 23.8 °F 29.51 in West 5.3 mph 10.4 mph 62 % 0.00 in 0.0 W/m2 CLR
19:39 35.3 °F 23.6 °F 29.51 in NW 7.5 mph 11.5 mph 62 % 0.00 in 0.0 W/m2 CLR
19:44 35.2 °F 23.5 °F 29.52 in West 8.5 mph 14.0 mph 62 % 0.00 in 0.0 W/m2 CLR
19:49 35.2 °F 23.5 °F 29.52 in West 6.3 mph 10.4 mph 62 % 0.00 in 0.0 W/m2 CLR
19:54 35.2 °F 23.5 °F 29.52 in West 5.3 mph 9.2 mph 62 % 0.00 in 0.0 W/m2 CLR
19:59 35.1 °F 23.4 °F 29.52 in WNW 7.8 mph 11.5 mph 62 % 0.00 in 0.0 W/m2 CLR
20:04 35.0 °F 23.7 °F 29.52 in West 6.9 mph 9.2 mph 63 % 0.00 in 0.0 W/m2 CLR
20:09 34.9 °F 23.6 °F 29.53 in West 3.9 mph 6.9 mph 63 % 0.00 in 0.0 W/m2 CLR
20:14 34.8 °F 23.9 °F 29.53 in West 7.5 mph 11.5 mph 64 % 0.00 in 0.0 W/m2 CLR
20:19 34.8 °F 23.9 °F 29.53 in WSW 6.2 mph 11.5 mph 64 % 0.00 in 0.0 W/m2 CLR
20:24 34.8 °F 24.2 °F 29.53 in West 8.9 mph 11.5 mph 65 % 0.00 in 0.0 W/m2 CLR
20:29 34.7 °F 24.1 °F 29.53 in WNW 8.2 mph 13.0 mph 65 % 0.00 in 0.0 W/m2 CLR
20:34 34.6 °F 24.4 °F 29.53 in West 6.7 mph 10.0 mph 66 % 0.00 in 0.0 W/m2 CLR
20:39 34.5 °F 24.3 °F 29.53 in WNW 6.3 mph 11.0 mph 66 % 0.00 in 0.0 W/m2 CLR
20:44 34.5 °F 24.3 °F 29.53 in West 6.1 mph 11.5 mph 66 % 0.00 in 0.0 W/m2 CLR
20:49 34.4 °F 24.6 °F 29.53 in West 7.6 mph 12.7 mph 67 % 0.00 in 0.0 W/m2 CLR
20:54 34.4 °F 24.6 °F 29.53 in West 5.2 mph 9.2 mph 67 % 0.00 in 0.0 W/m2 CLR
20:59 34.5 °F 25.0 °F 29.54 in WNW 4.2 mph 8.1 mph 68 % 0.00 in 0.0 W/m2 CLR
21:04 34.5 °F 25.0 °F 29.54 in West 7.0 mph 10.4 mph 68 % 0.00 in 0.0 W/m2 CLR
21:09 34.6 °F 25.1 °F 29.54 in WNW 3.3 mph 5.8 mph 68 % 0.00 in 0.0 W/m2 CLR
21:14 34.8 °F 25.3 °F 29.54 in West 5.3 mph 10.4 mph 68 % 0.00 in 0.0 W/m2 CLR
21:19 34.9 °F 25.4 °F 29.54 in West 8.1 mph 11.5 mph 68 % 0.00 in 0.0 W/m2 CLR
21:24 35.0 °F 25.1 °F 29.54 in WNW 9.8 mph 13.8 mph 67 % 0.00 in 0.0 W/m2 CLR
21:29 35.3 °F 25.4 °F 29.54 in West 5.6 mph 13.8 mph 67 % 0.00 in 0.0 W/m2 CLR
21:34 35.5 °F 25.3 °F 29.54 in WNW 6.8 mph 10.4 mph 66 % 0.00 in 0.0 W/m2 CLR
21:39 35.6 °F 25.4 °F 29.54 in WNW 13.4 mph 19.6 mph 66 % 0.00 in 0.0 W/m2 CLR
21:44 35.6 °F 25.4 °F 29.55 in WSW 6.7 mph 10.4 mph 66 % 0.00 in 0.0 W/m2 CLR
21:49 35.6 °F 25.4 °F 29.55 in WSW 10.9 mph 13.8 mph 66 % 0.00 in 0.0 W/m2 CLR
21:54 35.5 °F 25.3 °F 29.55 in West 8.5 mph 16.1 mph 66 % 0.00 in 0.0 W/m2 CLR
21:59 35.4 °F 24.8 °F 29.55 in West 9.8 mph 13.8 mph 65 % 0.00 in 0.0 W/m2 CLR
22:04 35.3 °F 24.7 °F 29.55 in West 7.5 mph 16.1 mph 65 % 0.00 in 0.0 W/m2 CLR
22:09 35.2 °F 24.2 °F 29.55 in West 9.5 mph 16.1 mph 64 % 0.00 in 0.0 W/m2 CLR
22:14 35.2 °F 23.9 °F 29.55 in WNW 11.3 mph 16.1 mph 63 % 0.00 in 0.0 W/m2 CLR
22:19 35.2 °F 23.9 °F 29.55 in West 6.1 mph 11.5 mph 63 % 0.00 in 0.0 W/m2 CLR
22:24 35.1 °F 23.4 °F 29.56 in West 8.3 mph 17.3 mph 62 % 0.00 in 0.0 W/m2 CLR
22:29 35.0 °F 23.3 °F 29.55 in West 11.8 mph 13.8 mph 62 % 0.00 in 0.0 W/m2 CLR
22:34 34.8 °F 22.7 °F 29.56 in West 8.1 mph 17.3 mph 61 % 0.00 in 0.0 W/m2 CLR
22:39 34.7 °F 22.2 °F 29.55 in WNW 11.4 mph 13.0 mph 60 % 0.00 in 0.0 W/m2 CLR
22:44 34.5 °F 22.0 °F 29.56 in WNW 11.8 mph 19.6 mph 60 % 0.00 in 0.0 W/m2 CLR
22:50 34.4 °F 21.5 °F 29.56 in NNW 13.4 mph 19.6 mph 59 % 0.00 in 0.0 W/m2 CLR
22:54 34.2 °F 20.9 °F 29.56 in WNW 10.3 mph 17.3 mph 58 % 0.00 in 0.0 W/m2 CLR
22:55 34.2 °F 20.9 °F 29.56 in NW 11.4 mph 16.1 mph 58 % 0.00 in 0.0 W/m2 CLR
23:00 34.1 °F 20.4 °F 29.56 in West 7.8 mph 13.0 mph 57 % 0.00 in 0.0 W/m2 CLR
23:05 33.9 °F 19.8 °F 29.56 in WNW 13.8 mph 21.9 mph 56 % 0.00 in 0.0 W/m2 CLR
23:10 33.9 °F 19.8 °F 29.56 in WNW 12.0 mph 17.3 mph 56 % 0.00 in 0.0 W/m2 CLR
23:15 33.8 °F 19.3 °F 29.57 in WNW 8.5 mph 13.8 mph 55 % 0.00 in 0.0 W/m2 CLR
23:20 33.7 °F 19.2 °F 29.57 in WNW 11.1 mph 15.0 mph 55 % 0.00 in 0.0 W/m2 CLR
23:25 33.6 °F 19.1 °F 29.57 in WNW 10.5 mph 19.6 mph 55 % 0.00 in 0.0 W/m2 CLR
23:30 33.5 °F 18.6 °F 29.57 in West 10.6 mph 13.8 mph 54 % 0.00 in 0.0 W/m2 CLR
23:35 33.4 °F 18.9 °F 29.57 in WNW 9.5 mph 13.8 mph 55 % 0.00 in 0.0 W/m2 CLR
23:40 33.3 °F 18.4 °F 29.57 in WNW 14.1 mph 23.0 mph 54 % 0.00 in 0.0 W/m2 CLR
23:50 33.2 °F 18.8 °F 29.57 in West 15.0 mph 23.0 mph 55 % 0.00 in 0.0 W/m2 CLR
23:55 33.2 °F 18.8 °F 29.57 in NW 12.8 mph 17.3 mph 55 % 0.00 in 0.0 W/m2 CLR
Air Products Campus Weather
Compliments of Weather Underground - 3.25 mb